<?xml version="1.0" encoding="UTF-8" standalone="no" ?>
<gpx xmlns="http://www.topografix.com/GPX/1/1" xmlns:xsi="http://www.w3.org/2001/XMLSchema-instance" xsi:schemaLocation="http://www.topografix.com/GPX/1/1 http://www.topografix.com/GPX/1/1/gpx.xsd" version="1.1" creator="VisuGPX - https://www.visugpx.com">
  <metadata>
    <name>Redon_Chateaulin</name>
    <desc><![CDATA[Randonnée cyclotouriste de Redon à Châteaulin par le chemin de halage du canal de Nantes à Brest avec quelques échappées vers Rostrenen, Carhaix et Pleyben.]]></desc>
  </metadata>
  <trk>
    <name><![CDATA[ACTIVE LOG 016]]></name>
    <trkseg>
      <trkpt lat="48.18167" lon="-3.81759">
        <ele>40.993408203125</ele>
        <time>2012-04-20T08:51:09Z</time>
      </trkpt>
      <trkpt lat="48.18182" lon="-3.81691">
        <ele>17.921752929688</ele>
        <time>2012-04-20T08:51:47Z</time>
      </trkpt>
      <trkpt lat="48.18182" lon="-3.81687">
        <ele>24.170288085938</ele>
        <time>2012-04-20T08:53:07Z</time>
      </trkpt>
      <trkpt lat="48.18186" lon="-3.81669">
        <ele>23.689575195312</ele>
        <time>2012-04-20T08:53:29Z</time>
      </trkpt>
      <trkpt lat="48.18178" lon="-3.81692">
        <ele>21.766967773438</ele>
        <time>2012-04-20T08:53:46Z</time>
      </trkpt>
      <trkpt lat="48.18177" lon="-3.81699">
        <ele>12.634399414062</ele>
        <time>2012-04-20T08:54:10Z</time>
      </trkpt>
      <trkpt lat="48.18175" lon="-3.81694">
        <ele>6.3858642578125</ele>
        <time>2012-04-20T08:54:30Z</time>
      </trkpt>
      <trkpt lat="48.18165" lon="-3.81711">
        <ele>7.34716796875</ele>
        <time>2012-04-20T08:54:56Z</time>
      </trkpt>
      <trkpt lat="48.18156" lon="-3.8172">
        <ele>6.866455078125</ele>
        <time>2012-04-20T08:55:15Z</time>
      </trkpt>
      <trkpt lat="48.18169" lon="-3.81729">
        <ele>12.15380859375</ele>
        <time>2012-04-20T08:55:47Z</time>
      </trkpt>
      <trkpt lat="48.18166" lon="-3.81745">
        <ele>22.728271484375</ele>
        <time>2012-04-20T08:56:45Z</time>
      </trkpt>
      <trkpt lat="48.18174" lon="-3.81742">
        <ele>30.418823242188</ele>
        <time>2012-04-20T08:57:19Z</time>
      </trkpt>
      <trkpt lat="48.1817" lon="-3.81725">
        <ele>36.186767578125</ele>
        <time>2012-04-20T08:57:24Z</time>
      </trkpt>
      <trkpt lat="48.18164" lon="-3.817">
        <ele>39.55126953125</ele>
        <time>2012-04-20T08:57:41Z</time>
      </trkpt>
      <trkpt lat="48.18165" lon="-3.81685">
        <ele>40.993408203125</ele>
        <time>2012-04-20T08:57:48Z</time>
      </trkpt>
      <trkpt lat="48.18168" lon="-3.81681">
        <ele>40.993408203125</ele>
        <time>2012-04-20T08:57:52Z</time>
      </trkpt>
      <trkpt lat="48.18206" lon="-3.81655">
        <ele>45.319213867188</ele>
        <time>2012-04-20T08:58:22Z</time>
      </trkpt>
      <trkpt lat="48.18235" lon="-3.81633">
        <ele>44.838623046875</ele>
        <time>2012-04-20T08:58:48Z</time>
      </trkpt>
      <trkpt lat="48.18236" lon="-3.81629">
        <ele>44.838623046875</ele>
        <time>2012-04-20T08:59:05Z</time>
      </trkpt>
      <trkpt lat="48.18262" lon="-3.816">
        <ele>43.877319335938</ele>
        <time>2012-04-20T08:59:18Z</time>
      </trkpt>
      <trkpt lat="48.18308" lon="-3.81525">
        <ele>43.396606445312</ele>
        <time>2012-04-20T08:59:37Z</time>
      </trkpt>
      <trkpt lat="48.18328" lon="-3.81437">
        <ele>45.319213867188</ele>
        <time>2012-04-20T08:59:55Z</time>
      </trkpt>
      <trkpt lat="48.18346" lon="-3.81351">
        <ele>45.799926757812</ele>
        <time>2012-04-20T09:00:12Z</time>
      </trkpt>
      <trkpt lat="48.18346" lon="-3.81347">
        <ele>46.280639648438</ele>
        <time>2012-04-20T09:00:22Z</time>
      </trkpt>
      <trkpt lat="48.1835" lon="-3.81316">
        <ele>45.319213867188</ele>
        <time>2012-04-20T09:01:03Z</time>
      </trkpt>
      <trkpt lat="48.18358" lon="-3.81254">
        <ele>43.396606445312</ele>
        <time>2012-04-20T09:01:13Z</time>
      </trkpt>
      <trkpt lat="48.18375" lon="-3.81196">
        <ele>40.512817382812</ele>
        <time>2012-04-20T09:01:20Z</time>
      </trkpt>
      <trkpt lat="48.1838" lon="-3.81149">
        <ele>40.512817382812</ele>
        <time>2012-04-20T09:01:25Z</time>
      </trkpt>
      <trkpt lat="48.18377" lon="-3.81118">
        <ele>40.993408203125</ele>
        <time>2012-04-20T09:01:29Z</time>
      </trkpt>
      <trkpt lat="48.1837" lon="-3.81031">
        <ele>42.916015625</ele>
        <time>2012-04-20T09:01:45Z</time>
      </trkpt>
      <trkpt lat="48.18386" lon="-3.81018">
        <ele>41.473999023438</ele>
        <time>2012-04-20T09:01:52Z</time>
      </trkpt>
      <trkpt lat="48.18397" lon="-3.81046">
        <ele>40.993408203125</ele>
        <time>2012-04-20T09:01:56Z</time>
      </trkpt>
      <trkpt lat="48.1848" lon="-3.81039">
        <ele>40.993408203125</ele>
        <time>2012-04-20T09:02:14Z</time>
      </trkpt>
      <trkpt lat="48.18483" lon="-3.81034">
        <ele>40.993408203125</ele>
        <time>2012-04-20T09:02:16Z</time>
      </trkpt>
      <trkpt lat="48.18486" lon="-3.8102">
        <ele>40.512817382812</ele>
        <time>2012-04-20T09:02:20Z</time>
      </trkpt>
      <trkpt lat="48.1849" lon="-3.80972">
        <ele>38.109375</ele>
        <time>2012-04-20T09:02:29Z</time>
      </trkpt>
      <trkpt lat="48.18463" lon="-3.80988">
        <ele>36.66748046875</ele>
        <time>2012-04-20T09:02:36Z</time>
      </trkpt>
      <trkpt lat="48.18466" lon="-3.81105">
        <ele>34.744873046875</ele>
        <time>2012-04-20T09:02:51Z</time>
      </trkpt>
      <trkpt lat="48.18465" lon="-3.81237">
        <ele>31.380126953125</ele>
        <time>2012-04-20T09:03:10Z</time>
      </trkpt>
      <trkpt lat="48.18462" lon="-3.81384">
        <ele>32.822265625</ele>
        <time>2012-04-20T09:03:31Z</time>
      </trkpt>
      <trkpt lat="48.18438" lon="-3.8153">
        <ele>35.7060546875</ele>
        <time>2012-04-20T09:03:52Z</time>
      </trkpt>
      <trkpt lat="48.18392" lon="-3.81661">
        <ele>36.186767578125</ele>
        <time>2012-04-20T09:04:14Z</time>
      </trkpt>
      <trkpt lat="48.18355" lon="-3.81739">
        <ele>37.628662109375</ele>
        <time>2012-04-20T09:04:28Z</time>
      </trkpt>
      <trkpt lat="48.1831" lon="-3.81801">
        <ele>37.628662109375</ele>
        <time>2012-04-20T09:04:42Z</time>
      </trkpt>
      <trkpt lat="48.18233" lon="-3.81854">
        <ele>39.55126953125</ele>
        <time>2012-04-20T09:05:00Z</time>
      </trkpt>
      <trkpt lat="48.18141" lon="-3.81888">
        <ele>40.993408203125</ele>
        <time>2012-04-20T09:05:22Z</time>
      </trkpt>
      <trkpt lat="48.18044" lon="-3.8189">
        <ele>41.954711914062</ele>
        <time>2012-04-20T09:05:44Z</time>
      </trkpt>
      <trkpt lat="48.17925" lon="-3.81865">
        <ele>36.66748046875</ele>
        <time>2012-04-20T09:06:11Z</time>
      </trkpt>
      <trkpt lat="48.17828" lon="-3.81853">
        <ele>38.109375</ele>
        <time>2012-04-20T09:06:34Z</time>
      </trkpt>
      <trkpt lat="48.17752" lon="-3.81865">
        <ele>38.590087890625</ele>
        <time>2012-04-20T09:06:52Z</time>
      </trkpt>
      <trkpt lat="48.17645" lon="-3.81882">
        <ele>37.148071289062</ele>
        <time>2012-04-20T09:07:16Z</time>
      </trkpt>
      <trkpt lat="48.17546" lon="-3.81888">
        <ele>40.993408203125</ele>
        <time>2012-04-20T09:07:37Z</time>
      </trkpt>
      <trkpt lat="48.17452" lon="-3.8189">
        <ele>37.148071289062</ele>
        <time>2012-04-20T09:07:58Z</time>
      </trkpt>
      <trkpt lat="48.17357" lon="-3.81891">
        <ele>34.744873046875</ele>
        <time>2012-04-20T09:08:20Z</time>
      </trkpt>
      <trkpt lat="48.17252" lon="-3.81893">
        <ele>34.744873046875</ele>
        <time>2012-04-20T09:08:43Z</time>
      </trkpt>
      <trkpt lat="48.17171" lon="-3.81895">
        <ele>35.225463867188</ele>
        <time>2012-04-20T09:09:04Z</time>
      </trkpt>
      <trkpt lat="48.17062" lon="-3.81905">
        <ele>34.26416015625</ele>
        <time>2012-04-20T09:09:30Z</time>
      </trkpt>
      <trkpt lat="48.16998" lon="-3.81912">
        <ele>35.7060546875</ele>
        <time>2012-04-20T09:09:50Z</time>
      </trkpt>
      <trkpt lat="48.16924" lon="-3.81912">
        <ele>36.66748046875</ele>
        <time>2012-04-20T09:10:05Z</time>
      </trkpt>
      <trkpt lat="48.1692" lon="-3.81912">
        <ele>36.186767578125</ele>
        <time>2012-04-20T09:10:06Z</time>
      </trkpt>
      <trkpt lat="48.16879" lon="-3.81915">
        <ele>37.148071289062</ele>
        <time>2012-04-20T09:10:16Z</time>
      </trkpt>
      <trkpt lat="48.16794" lon="-3.81923">
        <ele>37.148071289062</ele>
        <time>2012-04-20T09:10:37Z</time>
      </trkpt>
      <trkpt lat="48.16724" lon="-3.81946">
        <ele>36.66748046875</ele>
        <time>2012-04-20T09:10:55Z</time>
      </trkpt>
      <trkpt lat="48.16668" lon="-3.81969">
        <ele>37.148071289062</ele>
        <time>2012-04-20T09:11:10Z</time>
      </trkpt>
      <trkpt lat="48.16601" lon="-3.81989">
        <ele>38.109375</ele>
        <time>2012-04-20T09:11:26Z</time>
      </trkpt>
      <trkpt lat="48.16565" lon="-3.81999">
        <ele>39.55126953125</ele>
        <time>2012-04-20T09:11:35Z</time>
      </trkpt>
      <trkpt lat="48.16464" lon="-3.82011">
        <ele>40.032104492188</ele>
        <time>2012-04-20T09:12:00Z</time>
      </trkpt>
      <trkpt lat="48.16393" lon="-3.82005">
        <ele>36.186767578125</ele>
        <time>2012-04-20T09:12:17Z</time>
      </trkpt>
      <trkpt lat="48.16346" lon="-3.81989">
        <ele>33.783447265625</ele>
        <time>2012-04-20T09:12:34Z</time>
      </trkpt>
      <trkpt lat="48.16259" lon="-3.81937">
        <ele>34.744873046875</ele>
        <time>2012-04-20T09:12:50Z</time>
      </trkpt>
      <trkpt lat="48.16224" lon="-3.81916">
        <ele>33.302856445312</ele>
        <time>2012-04-20T09:12:59Z</time>
      </trkpt>
      <trkpt lat="48.16183" lon="-3.81891">
        <ele>33.783447265625</ele>
        <time>2012-04-20T09:13:09Z</time>
      </trkpt>
      <trkpt lat="48.1615" lon="-3.81878">
        <ele>33.783447265625</ele>
        <time>2012-04-20T09:13:17Z</time>
      </trkpt>
      <trkpt lat="48.16126" lon="-3.81878">
        <ele>33.783447265625</ele>
        <time>2012-04-20T09:13:23Z</time>
      </trkpt>
      <trkpt lat="48.16086" lon="-3.81909">
        <ele>33.783447265625</ele>
        <time>2012-04-20T09:13:35Z</time>
      </trkpt>
      <trkpt lat="48.16041" lon="-3.81987">
        <ele>35.225463867188</ele>
        <time>2012-04-20T09:13:52Z</time>
      </trkpt>
      <trkpt lat="48.15999" lon="-3.82055">
        <ele>35.225463867188</ele>
        <time>2012-04-20T09:14:06Z</time>
      </trkpt>
      <trkpt lat="48.15948" lon="-3.8211">
        <ele>31.860717773438</ele>
        <time>2012-04-20T09:14:20Z</time>
      </trkpt>
      <trkpt lat="48.15943" lon="-3.82118">
        <ele>31.380126953125</ele>
        <time>2012-04-20T09:14:22Z</time>
      </trkpt>
      <trkpt lat="48.15919" lon="-3.82156">
        <ele>28.015502929688</ele>
        <time>2012-04-20T09:14:30Z</time>
      </trkpt>
      <trkpt lat="48.1589" lon="-3.82204">
        <ele>28.976928710938</ele>
        <time>2012-04-20T09:14:39Z</time>
      </trkpt>
      <trkpt lat="48.15877" lon="-3.82237">
        <ele>30.418823242188</ele>
        <time>2012-04-20T09:14:45Z</time>
      </trkpt>
      <trkpt lat="48.15896" lon="-3.82389">
        <ele>32.341552734375</ele>
        <time>2012-04-20T09:15:07Z</time>
      </trkpt>
      <trkpt lat="48.15925" lon="-3.82535">
        <ele>34.744873046875</ele>
        <time>2012-04-20T09:15:29Z</time>
      </trkpt>
      <trkpt lat="48.15929" lon="-3.8256">
        <ele>36.186767578125</ele>
        <time>2012-04-20T09:15:33Z</time>
      </trkpt>
      <trkpt lat="48.15943" lon="-3.8263">
        <ele>35.7060546875</ele>
        <time>2012-04-20T09:15:43Z</time>
      </trkpt>
      <trkpt lat="48.1596" lon="-3.82712">
        <ele>40.993408203125</ele>
        <time>2012-04-20T09:15:57Z</time>
      </trkpt>
      <trkpt lat="48.15961" lon="-3.828">
        <ele>40.512817382812</ele>
        <time>2012-04-20T09:16:09Z</time>
      </trkpt>
      <trkpt lat="48.15957" lon="-3.82872">
        <ele>40.512817382812</ele>
        <time>2012-04-20T09:16:19Z</time>
      </trkpt>
      <trkpt lat="48.15956" lon="-3.82893">
        <ele>40.512817382812</ele>
        <time>2012-04-20T09:16:22Z</time>
      </trkpt>
      <trkpt lat="48.15937" lon="-3.83065">
        <ele>39.070678710938</ele>
        <time>2012-04-20T09:16:46Z</time>
      </trkpt>
      <trkpt lat="48.15908" lon="-3.83237">
        <ele>37.628662109375</ele>
        <time>2012-04-20T09:17:10Z</time>
      </trkpt>
      <trkpt lat="48.159" lon="-3.83286">
        <ele>39.070678710938</ele>
        <time>2012-04-20T09:17:17Z</time>
      </trkpt>
      <trkpt lat="48.15884" lon="-3.83406">
        <ele>40.032104492188</ele>
        <time>2012-04-20T09:17:35Z</time>
      </trkpt>
      <trkpt lat="48.15871" lon="-3.83524">
        <ele>40.512817382812</ele>
        <time>2012-04-20T09:17:52Z</time>
      </trkpt>
      <trkpt lat="48.15863" lon="-3.83643">
        <ele>39.070678710938</ele>
        <time>2012-04-20T09:18:09Z</time>
      </trkpt>
      <trkpt lat="48.15873" lon="-3.8377">
        <ele>39.55126953125</ele>
        <time>2012-04-20T09:18:27Z</time>
      </trkpt>
      <trkpt lat="48.15895" lon="-3.83909">
        <ele>38.109375</ele>
        <time>2012-04-20T09:18:47Z</time>
      </trkpt>
      <trkpt lat="48.1592" lon="-3.84037">
        <ele>38.109375</ele>
        <time>2012-04-20T09:19:05Z</time>
      </trkpt>
      <trkpt lat="48.15949" lon="-3.84133">
        <ele>36.186767578125</ele>
        <time>2012-04-20T09:19:19Z</time>
      </trkpt>
      <trkpt lat="48.16008" lon="-3.84266">
        <ele>35.7060546875</ele>
        <time>2012-04-20T09:19:41Z</time>
      </trkpt>
      <trkpt lat="48.16055" lon="-3.8437">
        <ele>33.302856445312</ele>
        <time>2012-04-20T09:19:58Z</time>
      </trkpt>
      <trkpt lat="48.16085" lon="-3.84462">
        <ele>32.822265625</ele>
        <time>2012-04-20T09:20:12Z</time>
      </trkpt>
      <trkpt lat="48.16097" lon="-3.845">
        <ele>32.341552734375</ele>
        <time>2012-04-20T09:20:18Z</time>
      </trkpt>
      <trkpt lat="48.16128" lon="-3.84601">
        <ele>31.860717773438</ele>
        <time>2012-04-20T09:20:33Z</time>
      </trkpt>
      <trkpt lat="48.16132" lon="-3.84612">
        <ele>32.341552734375</ele>
        <time>2012-04-20T09:20:38Z</time>
      </trkpt>
      <trkpt lat="48.1615" lon="-3.8468">
        <ele>33.783447265625</ele>
        <time>2012-04-20T09:20:46Z</time>
      </trkpt>
      <trkpt lat="48.16171" lon="-3.84759">
        <ele>35.225463867188</ele>
        <time>2012-04-20T09:20:58Z</time>
      </trkpt>
      <trkpt lat="48.16234" lon="-3.84906">
        <ele>34.26416015625</ele>
        <time>2012-04-20T09:21:21Z</time>
      </trkpt>
      <trkpt lat="48.16299" lon="-3.85024">
        <ele>33.783447265625</ele>
        <time>2012-04-20T09:21:42Z</time>
      </trkpt>
      <trkpt lat="48.16356" lon="-3.85124">
        <ele>32.822265625</ele>
        <time>2012-04-20T09:22:00Z</time>
      </trkpt>
      <trkpt lat="48.16399" lon="-3.85238">
        <ele>33.783447265625</ele>
        <time>2012-04-20T09:22:20Z</time>
      </trkpt>
      <trkpt lat="48.16443" lon="-3.85382">
        <ele>33.302856445312</ele>
        <time>2012-04-20T09:22:41Z</time>
      </trkpt>
      <trkpt lat="48.16451" lon="-3.85408">
        <ele>33.783447265625</ele>
        <time>2012-04-20T09:22:45Z</time>
      </trkpt>
      <trkpt lat="48.16498" lon="-3.85561">
        <ele>34.26416015625</ele>
        <time>2012-04-20T09:23:08Z</time>
      </trkpt>
      <trkpt lat="48.1655" lon="-3.85727">
        <ele>36.186767578125</ele>
        <time>2012-04-20T09:23:34Z</time>
      </trkpt>
      <trkpt lat="48.16568" lon="-3.85878">
        <ele>35.7060546875</ele>
        <time>2012-04-20T09:23:57Z</time>
      </trkpt>
      <trkpt lat="48.1656" lon="-3.85988">
        <ele>33.783447265625</ele>
        <time>2012-04-20T09:24:17Z</time>
      </trkpt>
      <trkpt lat="48.16542" lon="-3.86033">
        <ele>33.302856445312</ele>
        <time>2012-04-20T09:24:33Z</time>
      </trkpt>
      <trkpt lat="48.16535" lon="-3.86047">
        <ele>32.822265625</ele>
        <time>2012-04-20T09:24:49Z</time>
      </trkpt>
      <trkpt lat="48.16535" lon="-3.86047">
        <ele>32.822265625</ele>
        <time>2012-04-20T09:25:41Z</time>
      </trkpt>
      <trkpt lat="48.16533" lon="-3.86052">
        <ele>32.822265625</ele>
        <time>2012-04-20T09:25:43Z</time>
      </trkpt>
      <trkpt lat="48.16518" lon="-3.86102">
        <ele>32.822265625</ele>
        <time>2012-04-20T09:25:58Z</time>
      </trkpt>
      <trkpt lat="48.16518" lon="-3.86133">
        <ele>36.186767578125</ele>
        <time>2012-04-20T09:26:07Z</time>
      </trkpt>
      <trkpt lat="48.16521" lon="-3.86154">
        <ele>35.225463867188</ele>
        <time>2012-04-20T09:26:13Z</time>
      </trkpt>
      <trkpt lat="48.16526" lon="-3.86177">
        <ele>34.26416015625</ele>
        <time>2012-04-20T09:26:17Z</time>
      </trkpt>
      <trkpt lat="48.16531" lon="-3.86204">
        <ele>33.783447265625</ele>
        <time>2012-04-20T09:26:21Z</time>
      </trkpt>
      <trkpt lat="48.16554" lon="-3.86348">
        <ele>35.225463867188</ele>
        <time>2012-04-20T09:26:42Z</time>
      </trkpt>
      <trkpt lat="48.16568" lon="-3.86476">
        <ele>35.7060546875</ele>
        <time>2012-04-20T09:27:01Z</time>
      </trkpt>
      <trkpt lat="48.16573" lon="-3.86527">
        <ele>34.26416015625</ele>
        <time>2012-04-20T09:27:11Z</time>
      </trkpt>
      <trkpt lat="48.16597" lon="-3.86599">
        <ele>35.225463867188</ele>
        <time>2012-04-20T09:27:24Z</time>
      </trkpt>
      <trkpt lat="48.16665" lon="-3.86707">
        <ele>34.26416015625</ele>
        <time>2012-04-20T09:27:46Z</time>
      </trkpt>
      <trkpt lat="48.16751" lon="-3.86806">
        <ele>33.302856445312</ele>
        <time>2012-04-20T09:28:09Z</time>
      </trkpt>
      <trkpt lat="48.16768" lon="-3.86834">
        <ele>33.783447265625</ele>
        <time>2012-04-20T09:28:15Z</time>
      </trkpt>
      <trkpt lat="48.16774" lon="-3.86851">
        <ele>34.26416015625</ele>
        <time>2012-04-20T09:28:18Z</time>
      </trkpt>
      <trkpt lat="48.16791" lon="-3.86908">
        <ele>35.7060546875</ele>
        <time>2012-04-20T09:28:28Z</time>
      </trkpt>
      <trkpt lat="48.16827" lon="-3.87063">
        <ele>33.783447265625</ele>
        <time>2012-04-20T09:28:51Z</time>
      </trkpt>
      <trkpt lat="48.1685" lon="-3.87139">
        <ele>32.822265625</ele>
        <time>2012-04-20T09:29:05Z</time>
      </trkpt>
      <trkpt lat="48.16874" lon="-3.87205">
        <ele>32.822265625</ele>
        <time>2012-04-20T09:29:17Z</time>
      </trkpt>
      <trkpt lat="48.16947" lon="-3.87376">
        <ele>31.860717773438</ele>
        <time>2012-04-20T09:29:45Z</time>
      </trkpt>
      <trkpt lat="48.17022" lon="-3.87484">
        <ele>32.341552734375</ele>
        <time>2012-04-20T09:30:07Z</time>
      </trkpt>
      <trkpt lat="48.17028" lon="-3.87492">
        <ele>31.860717773438</ele>
        <time>2012-04-20T09:30:09Z</time>
      </trkpt>
      <trkpt lat="48.17094" lon="-3.87575">
        <ele>32.341552734375</ele>
        <time>2012-04-20T09:30:30Z</time>
      </trkpt>
      <trkpt lat="48.17143" lon="-3.87708">
        <ele>32.822265625</ele>
        <time>2012-04-20T09:30:54Z</time>
      </trkpt>
      <trkpt lat="48.17175" lon="-3.87862">
        <ele>33.783447265625</ele>
        <time>2012-04-20T09:31:17Z</time>
      </trkpt>
      <trkpt lat="48.17205" lon="-3.88037">
        <ele>33.783447265625</ele>
        <time>2012-04-20T09:31:42Z</time>
      </trkpt>
      <trkpt lat="48.17216" lon="-3.88098">
        <ele>33.302856445312</ele>
        <time>2012-04-20T09:31:51Z</time>
      </trkpt>
      <trkpt lat="48.17245" lon="-3.88236">
        <ele>32.341552734375</ele>
        <time>2012-04-20T09:32:10Z</time>
      </trkpt>
      <trkpt lat="48.17303" lon="-3.88345">
        <ele>30.899536132812</ele>
        <time>2012-04-20T09:32:28Z</time>
      </trkpt>
      <trkpt lat="48.17383" lon="-3.88474">
        <ele>30.899536132812</ele>
        <time>2012-04-20T09:32:52Z</time>
      </trkpt>
      <trkpt lat="48.17412" lon="-3.88548">
        <ele>31.860717773438</ele>
        <time>2012-04-20T09:33:05Z</time>
      </trkpt>
      <trkpt lat="48.17424" lon="-3.88579">
        <ele>31.380126953125</ele>
        <time>2012-04-20T09:33:10Z</time>
      </trkpt>
      <trkpt lat="48.17446" lon="-3.88661">
        <ele>31.380126953125</ele>
        <time>2012-04-20T09:33:23Z</time>
      </trkpt>
      <trkpt lat="48.17481" lon="-3.88799">
        <ele>32.822265625</ele>
        <time>2012-04-20T09:33:43Z</time>
      </trkpt>
      <trkpt lat="48.17518" lon="-3.88904">
        <ele>31.860717773438</ele>
        <time>2012-04-20T09:33:59Z</time>
      </trkpt>
      <trkpt lat="48.17536" lon="-3.88949">
        <ele>32.822265625</ele>
        <time>2012-04-20T09:34:06Z</time>
      </trkpt>
      <trkpt lat="48.17581" lon="-3.89065">
        <ele>31.380126953125</ele>
        <time>2012-04-20T09:34:25Z</time>
      </trkpt>
      <trkpt lat="48.17606" lon="-3.89111">
        <ele>30.418823242188</ele>
        <time>2012-04-20T09:34:34Z</time>
      </trkpt>
      <trkpt lat="48.17615" lon="-3.89133">
        <ele>30.418823242188</ele>
        <time>2012-04-20T09:34:39Z</time>
      </trkpt>
      <trkpt lat="48.17657" lon="-3.89265">
        <ele>29.45751953125</ele>
        <time>2012-04-20T09:35:00Z</time>
      </trkpt>
      <trkpt lat="48.17714" lon="-3.89365">
        <ele>28.015502929688</ele>
        <time>2012-04-20T09:35:18Z</time>
      </trkpt>
      <trkpt lat="48.17789" lon="-3.89498">
        <ele>28.976928710938</ele>
        <time>2012-04-20T09:35:43Z</time>
      </trkpt>
      <trkpt lat="48.17847" lon="-3.89615">
        <ele>30.899536132812</ele>
        <time>2012-04-20T09:36:05Z</time>
      </trkpt>
      <trkpt lat="48.17866" lon="-3.89664">
        <ele>30.418823242188</ele>
        <time>2012-04-20T09:36:13Z</time>
      </trkpt>
      <trkpt lat="48.17903" lon="-3.8978">
        <ele>31.860717773438</ele>
        <time>2012-04-20T09:36:33Z</time>
      </trkpt>
      <trkpt lat="48.17934" lon="-3.89872">
        <ele>28.976928710938</ele>
        <time>2012-04-20T09:36:48Z</time>
      </trkpt>
      <trkpt lat="48.18003" lon="-3.90077">
        <ele>28.015502929688</ele>
        <time>2012-04-20T09:37:20Z</time>
      </trkpt>
      <trkpt lat="48.18053" lon="-3.90228">
        <ele>27.054321289062</ele>
        <time>2012-04-20T09:37:45Z</time>
      </trkpt>
      <trkpt lat="48.18084" lon="-3.9032">
        <ele>27.054321289062</ele>
        <time>2012-04-20T09:38:00Z</time>
      </trkpt>
      <trkpt lat="48.18096" lon="-3.90356">
        <ele>27.054321289062</ele>
        <time>2012-04-20T09:38:06Z</time>
      </trkpt>
      <trkpt lat="48.18128" lon="-3.90474">
        <ele>28.496215820312</ele>
        <time>2012-04-20T09:38:24Z</time>
      </trkpt>
      <trkpt lat="48.18132" lon="-3.90537">
        <ele>28.496215820312</ele>
        <time>2012-04-20T09:38:33Z</time>
      </trkpt>
      <trkpt lat="48.18129" lon="-3.90563">
        <ele>29.938110351562</ele>
        <time>2012-04-20T09:38:38Z</time>
      </trkpt>
      <trkpt lat="48.18091" lon="-3.9065">
        <ele>30.899536132812</ele>
        <time>2012-04-20T09:38:53Z</time>
      </trkpt>
      <trkpt lat="48.18044" lon="-3.90706">
        <ele>28.496215820312</ele>
        <time>2012-04-20T09:39:06Z</time>
      </trkpt>
      <trkpt lat="48.17997" lon="-3.90762">
        <ele>28.496215820312</ele>
        <time>2012-04-20T09:39:18Z</time>
      </trkpt>
      <trkpt lat="48.17923" lon="-3.90857">
        <ele>30.418823242188</ele>
        <time>2012-04-20T09:39:38Z</time>
      </trkpt>
      <trkpt lat="48.17857" lon="-3.90917">
        <ele>30.418823242188</ele>
        <time>2012-04-20T09:39:54Z</time>
      </trkpt>
      <trkpt lat="48.17796" lon="-3.90985">
        <ele>31.380126953125</ele>
        <time>2012-04-20T09:40:11Z</time>
      </trkpt>
      <trkpt lat="48.1774" lon="-3.91068">
        <ele>30.418823242188</ele>
        <time>2012-04-20T09:40:29Z</time>
      </trkpt>
      <trkpt lat="48.17689" lon="-3.91174">
        <ele>28.496215820312</ele>
        <time>2012-04-20T09:40:50Z</time>
      </trkpt>
      <trkpt lat="48.17637" lon="-3.91289">
        <ele>28.976928710938</ele>
        <time>2012-04-20T09:41:11Z</time>
      </trkpt>
      <trkpt lat="48.17573" lon="-3.91416">
        <ele>28.015502929688</ele>
        <time>2012-04-20T09:41:35Z</time>
      </trkpt>
      <trkpt lat="48.17528" lon="-3.91493">
        <ele>29.45751953125</ele>
        <time>2012-04-20T09:41:51Z</time>
      </trkpt>
      <trkpt lat="48.17483" lon="-3.91563">
        <ele>31.380126953125</ele>
        <time>2012-04-20T09:42:06Z</time>
      </trkpt>
      <trkpt lat="48.17423" lon="-3.91637">
        <ele>28.976928710938</ele>
        <time>2012-04-20T09:42:26Z</time>
      </trkpt>
      <trkpt lat="48.17338" lon="-3.91689">
        <ele>28.496215820312</ele>
        <time>2012-04-20T09:42:45Z</time>
      </trkpt>
      <trkpt lat="48.17283" lon="-3.91746">
        <ele>27.054321289062</ele>
        <time>2012-04-20T09:43:03Z</time>
      </trkpt>
      <trkpt lat="48.17253" lon="-3.9179">
        <ele>26.573608398438</ele>
        <time>2012-04-20T09:43:17Z</time>
      </trkpt>
      <trkpt lat="48.17245" lon="-3.9182">
        <ele>27.054321289062</ele>
        <time>2012-04-20T09:44:01Z</time>
      </trkpt>
      <trkpt lat="48.17215" lon="-3.91937">
        <ele>26.092895507812</ele>
        <time>2012-04-20T09:44:24Z</time>
      </trkpt>
      <trkpt lat="48.17183" lon="-3.92077">
        <ele>24.651000976562</ele>
        <time>2012-04-20T09:44:49Z</time>
      </trkpt>
      <trkpt lat="48.17183" lon="-3.92104">
        <ele>25.6123046875</ele>
        <time>2012-04-20T09:45:00Z</time>
      </trkpt>
      <trkpt lat="48.17183" lon="-3.92134">
        <ele>27.054321289062</ele>
        <time>2012-04-20T09:47:02Z</time>
      </trkpt>
      <trkpt lat="48.17195" lon="-3.92206">
        <ele>28.496215820312</ele>
        <time>2012-04-20T09:47:19Z</time>
      </trkpt>
      <trkpt lat="48.17211" lon="-3.92277">
        <ele>28.015502929688</ele>
        <time>2012-04-20T09:47:33Z</time>
      </trkpt>
      <trkpt lat="48.17201" lon="-3.92368">
        <ele>28.976928710938</ele>
        <time>2012-04-20T09:47:49Z</time>
      </trkpt>
      <trkpt lat="48.17193" lon="-3.92457">
        <ele>28.015502929688</ele>
        <time>2012-04-20T09:48:03Z</time>
      </trkpt>
      <trkpt lat="48.17195" lon="-3.92495">
        <ele>28.015502929688</ele>
        <time>2012-04-20T09:48:09Z</time>
      </trkpt>
      <trkpt lat="48.17207" lon="-3.92559">
        <ele>28.976928710938</ele>
        <time>2012-04-20T09:48:19Z</time>
      </trkpt>
      <trkpt lat="48.17268" lon="-3.92653">
        <ele>29.45751953125</ele>
        <time>2012-04-20T09:48:38Z</time>
      </trkpt>
      <trkpt lat="48.17352" lon="-3.92746">
        <ele>29.45751953125</ele>
        <time>2012-04-20T09:49:02Z</time>
      </trkpt>
      <trkpt lat="48.17376" lon="-3.92748">
        <ele>28.496215820312</ele>
        <time>2012-04-20T09:49:08Z</time>
      </trkpt>
      <trkpt lat="48.17442" lon="-3.92769">
        <ele>28.496215820312</ele>
        <time>2012-04-20T09:49:24Z</time>
      </trkpt>
      <trkpt lat="48.17459" lon="-3.92775">
        <ele>28.976928710938</ele>
        <time>2012-04-20T09:49:28Z</time>
      </trkpt>
      <trkpt lat="48.17527" lon="-3.928">
        <ele>28.496215820312</ele>
        <time>2012-04-20T09:49:44Z</time>
      </trkpt>
      <trkpt lat="48.17586" lon="-3.92821">
        <ele>28.976928710938</ele>
        <time>2012-04-20T09:50:03Z</time>
      </trkpt>
      <trkpt lat="48.17672" lon="-3.92843">
        <ele>28.976928710938</ele>
        <time>2012-04-20T09:50:22Z</time>
      </trkpt>
      <trkpt lat="48.17742" lon="-3.92852">
        <ele>28.015502929688</ele>
        <time>2012-04-20T09:50:36Z</time>
      </trkpt>
      <trkpt lat="48.17796" lon="-3.92876">
        <ele>27.534912109375</ele>
        <time>2012-04-20T09:50:50Z</time>
      </trkpt>
      <trkpt lat="48.1784" lon="-3.92898">
        <ele>25.6123046875</ele>
        <time>2012-04-20T09:51:02Z</time>
      </trkpt>
      <trkpt lat="48.17919" lon="-3.92948">
        <ele>26.092895507812</ele>
        <time>2012-04-20T09:51:23Z</time>
      </trkpt>
      <trkpt lat="48.17999" lon="-3.92995">
        <ele>25.131713867188</ele>
        <time>2012-04-20T09:51:43Z</time>
      </trkpt>
      <trkpt lat="48.18065" lon="-3.93006">
        <ele>24.170288085938</ele>
        <time>2012-04-20T09:51:58Z</time>
      </trkpt>
      <trkpt lat="48.18151" lon="-3.93027">
        <ele>24.170288085938</ele>
        <time>2012-04-20T09:52:18Z</time>
      </trkpt>
      <trkpt lat="48.18217" lon="-3.9305">
        <ele>24.651000976562</ele>
        <time>2012-04-20T09:52:36Z</time>
      </trkpt>
      <trkpt lat="48.18285" lon="-3.93057">
        <ele>25.6123046875</ele>
        <time>2012-04-20T09:52:54Z</time>
      </trkpt>
      <trkpt lat="48.18384" lon="-3.93069">
        <ele>25.6123046875</ele>
        <time>2012-04-20T09:53:20Z</time>
      </trkpt>
      <trkpt lat="48.18498" lon="-3.93109">
        <ele>25.131713867188</ele>
        <time>2012-04-20T09:53:50Z</time>
      </trkpt>
      <trkpt lat="48.18537" lon="-3.93117">
        <ele>25.131713867188</ele>
        <time>2012-04-20T09:54:05Z</time>
      </trkpt>
      <trkpt lat="48.18537" lon="-3.93117">
        <ele>24.170288085938</ele>
        <time>2012-04-20T09:54:19Z</time>
      </trkpt>
      <trkpt lat="48.18537" lon="-3.93117">
        <ele>26.573608398438</ele>
        <time>2012-04-20T10:11:03Z</time>
      </trkpt>
      <trkpt lat="48.18537" lon="-3.93117">
        <ele>27.534912109375</ele>
        <time>2012-04-20T10:11:09Z</time>
      </trkpt>
      <trkpt lat="48.18579" lon="-3.93124">
        <ele>28.015502929688</ele>
        <time>2012-04-20T10:11:26Z</time>
      </trkpt>
      <trkpt lat="48.18648" lon="-3.93134">
        <ele>28.015502929688</ele>
        <time>2012-04-20T10:11:45Z</time>
      </trkpt>
      <trkpt lat="48.18737" lon="-3.93158">
        <ele>28.496215820312</ele>
        <time>2012-04-20T10:12:07Z</time>
      </trkpt>
      <trkpt lat="48.18809" lon="-3.93207">
        <ele>26.573608398438</ele>
        <time>2012-04-20T10:12:29Z</time>
      </trkpt>
      <trkpt lat="48.18868" lon="-3.93256">
        <ele>28.015502929688</ele>
        <time>2012-04-20T10:12:49Z</time>
      </trkpt>
      <trkpt lat="48.18925" lon="-3.93307">
        <ele>28.015502929688</ele>
        <time>2012-04-20T10:13:09Z</time>
      </trkpt>
      <trkpt lat="48.18981" lon="-3.9337">
        <ele>30.899536132812</ele>
        <time>2012-04-20T10:13:31Z</time>
      </trkpt>
      <trkpt lat="48.18985" lon="-3.93375">
        <ele>30.418823242188</ele>
        <time>2012-04-20T10:13:36Z</time>
      </trkpt>
      <trkpt lat="48.18993" lon="-3.93391">
        <ele>29.938110351562</ele>
        <time>2012-04-20T10:13:41Z</time>
      </trkpt>
      <trkpt lat="48.19024" lon="-3.93454">
        <ele>28.015502929688</ele>
        <time>2012-04-20T10:13:51Z</time>
      </trkpt>
      <trkpt lat="48.19038" lon="-3.93554">
        <ele>28.496215820312</ele>
        <time>2012-04-20T10:14:08Z</time>
      </trkpt>
      <trkpt lat="48.19053" lon="-3.93666">
        <ele>27.534912109375</ele>
        <time>2012-04-20T10:14:27Z</time>
      </trkpt>
      <trkpt lat="48.19076" lon="-3.93834">
        <ele>31.860717773438</ele>
        <time>2012-04-20T10:14:56Z</time>
      </trkpt>
      <trkpt lat="48.1909" lon="-3.93949">
        <ele>28.976928710938</ele>
        <time>2012-04-20T10:15:16Z</time>
      </trkpt>
      <trkpt lat="48.19105" lon="-3.94096">
        <ele>28.015502929688</ele>
        <time>2012-04-20T10:15:40Z</time>
      </trkpt>
      <trkpt lat="48.19132" lon="-3.94238">
        <ele>27.534912109375</ele>
        <time>2012-04-20T10:16:04Z</time>
      </trkpt>
      <trkpt lat="48.19131" lon="-3.94299">
        <ele>30.418823242188</ele>
        <time>2012-04-20T10:16:17Z</time>
      </trkpt>
      <trkpt lat="48.1913" lon="-3.94306">
        <ele>31.860717773438</ele>
        <time>2012-04-20T10:16:30Z</time>
      </trkpt>
      <trkpt lat="48.1913" lon="-3.94306">
        <ele>32.341552734375</ele>
        <time>2012-04-20T10:16:56Z</time>
      </trkpt>
      <trkpt lat="48.1913" lon="-3.94306">
        <ele>32.341552734375</ele>
        <time>2012-04-20T10:18:12Z</time>
      </trkpt>
      <trkpt lat="48.19124" lon="-3.94356">
        <ele>36.186767578125</ele>
        <time>2012-04-20T10:18:25Z</time>
      </trkpt>
      <trkpt lat="48.19085" lon="-3.94466">
        <ele>36.186767578125</ele>
        <time>2012-04-20T10:18:46Z</time>
      </trkpt>
      <trkpt lat="48.19065" lon="-3.94521">
        <ele>35.225463867188</ele>
        <time>2012-04-20T10:19:00Z</time>
      </trkpt>
      <trkpt lat="48.1904" lon="-3.94589">
        <ele>34.744873046875</ele>
        <time>2012-04-20T10:19:21Z</time>
      </trkpt>
      <trkpt lat="48.19039" lon="-3.94594">
        <ele>34.26416015625</ele>
        <time>2012-04-20T10:19:36Z</time>
      </trkpt>
      <trkpt lat="48.19029" lon="-3.9462">
        <ele>33.302856445312</ele>
        <time>2012-04-20T10:20:43Z</time>
      </trkpt>
      <trkpt lat="48.19004" lon="-3.94691">
        <ele>30.418823242188</ele>
        <time>2012-04-20T10:20:58Z</time>
      </trkpt>
      <trkpt lat="48.18964" lon="-3.94801">
        <ele>29.938110351562</ele>
        <time>2012-04-20T10:21:23Z</time>
      </trkpt>
      <trkpt lat="48.18926" lon="-3.94943">
        <ele>28.496215820312</ele>
        <time>2012-04-20T10:21:51Z</time>
      </trkpt>
      <trkpt lat="48.18892" lon="-3.95072">
        <ele>26.092895507812</ele>
        <time>2012-04-20T10:22:15Z</time>
      </trkpt>
      <trkpt lat="48.18842" lon="-3.95193">
        <ele>26.092895507812</ele>
        <time>2012-04-20T10:22:38Z</time>
      </trkpt>
      <trkpt lat="48.18775" lon="-3.95331">
        <ele>25.6123046875</ele>
        <time>2012-04-20T10:23:07Z</time>
      </trkpt>
      <trkpt lat="48.18749" lon="-3.95425">
        <ele>25.131713867188</ele>
        <time>2012-04-20T10:23:24Z</time>
      </trkpt>
      <trkpt lat="48.18735" lon="-3.95511">
        <ele>27.054321289062</ele>
        <time>2012-04-20T10:23:40Z</time>
      </trkpt>
      <trkpt lat="48.18724" lon="-3.95605">
        <ele>26.092895507812</ele>
        <time>2012-04-20T10:23:58Z</time>
      </trkpt>
      <trkpt lat="48.18728" lon="-3.95726">
        <ele>27.534912109375</ele>
        <time>2012-04-20T10:24:20Z</time>
      </trkpt>
      <trkpt lat="48.18744" lon="-3.95843">
        <ele>26.573608398438</ele>
        <time>2012-04-20T10:24:40Z</time>
      </trkpt>
      <trkpt lat="48.18785" lon="-3.95942">
        <ele>27.054321289062</ele>
        <time>2012-04-20T10:24:59Z</time>
      </trkpt>
      <trkpt lat="48.18841" lon="-3.9598">
        <ele>26.573608398438</ele>
        <time>2012-04-20T10:25:15Z</time>
      </trkpt>
      <trkpt lat="48.18926" lon="-3.95973">
        <ele>25.6123046875</ele>
        <time>2012-04-20T10:25:36Z</time>
      </trkpt>
      <trkpt lat="48.19007" lon="-3.95959">
        <ele>24.170288085938</ele>
        <time>2012-04-20T10:25:56Z</time>
      </trkpt>
      <trkpt lat="48.19095" lon="-3.9595">
        <ele>23.689575195312</ele>
        <time>2012-04-20T10:26:19Z</time>
      </trkpt>
      <trkpt lat="48.19241" lon="-3.95963">
        <ele>24.651000976562</ele>
        <time>2012-04-20T10:26:56Z</time>
      </trkpt>
      <trkpt lat="48.1934" lon="-3.95963">
        <ele>25.131713867188</ele>
        <time>2012-04-20T10:27:21Z</time>
      </trkpt>
      <trkpt lat="48.19428" lon="-3.95968">
        <ele>25.6123046875</ele>
        <time>2012-04-20T10:27:44Z</time>
      </trkpt>
      <trkpt lat="48.19524" lon="-3.9598">
        <ele>25.131713867188</ele>
        <time>2012-04-20T10:28:07Z</time>
      </trkpt>
      <trkpt lat="48.19663" lon="-3.95985">
        <ele>25.131713867188</ele>
        <time>2012-04-20T10:28:38Z</time>
      </trkpt>
      <trkpt lat="48.19757" lon="-3.96024">
        <ele>26.092895507812</ele>
        <time>2012-04-20T10:29:01Z</time>
      </trkpt>
      <trkpt lat="48.19841" lon="-3.96067">
        <ele>25.131713867188</ele>
        <time>2012-04-20T10:29:21Z</time>
      </trkpt>
      <trkpt lat="48.19891" lon="-3.96093">
        <ele>25.6123046875</ele>
        <time>2012-04-20T10:29:34Z</time>
      </trkpt>
      <trkpt lat="48.19923" lon="-3.96109">
        <ele>25.131713867188</ele>
        <time>2012-04-20T10:29:42Z</time>
      </trkpt>
      <trkpt lat="48.19977" lon="-3.96137">
        <ele>24.651000976562</ele>
        <time>2012-04-20T10:29:56Z</time>
      </trkpt>
      <trkpt lat="48.20043" lon="-3.96189">
        <ele>24.170288085938</ele>
        <time>2012-04-20T10:30:16Z</time>
      </trkpt>
      <trkpt lat="48.20095" lon="-3.96263">
        <ele>27.054321289062</ele>
        <time>2012-04-20T10:30:36Z</time>
      </trkpt>
      <trkpt lat="48.2013" lon="-3.96339">
        <ele>27.054321289062</ele>
        <time>2012-04-20T10:30:52Z</time>
      </trkpt>
      <trkpt lat="48.20175" lon="-3.96482">
        <ele>27.534912109375</ele>
        <time>2012-04-20T10:31:18Z</time>
      </trkpt>
      <trkpt lat="48.20211" lon="-3.96574">
        <ele>30.899536132812</ele>
        <time>2012-04-20T10:31:37Z</time>
      </trkpt>
      <trkpt lat="48.20224" lon="-3.96672">
        <ele>30.899536132812</ele>
        <time>2012-04-20T10:31:55Z</time>
      </trkpt>
      <trkpt lat="48.20222" lon="-3.96786">
        <ele>32.341552734375</ele>
        <time>2012-04-20T10:32:17Z</time>
      </trkpt>
      <trkpt lat="48.20213" lon="-3.96837">
        <ele>28.496215820312</ele>
        <time>2012-04-20T10:32:28Z</time>
      </trkpt>
      <trkpt lat="48.20182" lon="-3.96929">
        <ele>27.534912109375</ele>
        <time>2012-04-20T10:32:44Z</time>
      </trkpt>
      <trkpt lat="48.20131" lon="-3.97021">
        <ele>23.689575195312</ele>
        <time>2012-04-20T10:33:04Z</time>
      </trkpt>
      <trkpt lat="48.20076" lon="-3.97116">
        <ele>19.844360351562</ele>
        <time>2012-04-20T10:33:28Z</time>
      </trkpt>
      <trkpt lat="48.20025" lon="-3.97224">
        <ele>21.286376953125</ele>
        <time>2012-04-20T10:33:52Z</time>
      </trkpt>
      <trkpt lat="48.19977" lon="-3.97306">
        <ele>21.286376953125</ele>
        <time>2012-04-20T10:34:13Z</time>
      </trkpt>
      <trkpt lat="48.19924" lon="-3.97375">
        <ele>20.324951171875</ele>
        <time>2012-04-20T10:34:32Z</time>
      </trkpt>
      <trkpt lat="48.19867" lon="-3.97432">
        <ele>19.844360351562</ele>
        <time>2012-04-20T10:34:51Z</time>
      </trkpt>
      <trkpt lat="48.19802" lon="-3.97477">
        <ele>20.8056640625</ele>
        <time>2012-04-20T10:35:14Z</time>
      </trkpt>
      <trkpt lat="48.19735" lon="-3.97523">
        <ele>21.286376953125</ele>
        <time>2012-04-20T10:35:34Z</time>
      </trkpt>
      <trkpt lat="48.19662" lon="-3.97578">
        <ele>20.324951171875</ele>
        <time>2012-04-20T10:35:55Z</time>
      </trkpt>
      <trkpt lat="48.19629" lon="-3.97622">
        <ele>19.844360351562</ele>
        <time>2012-04-20T10:36:07Z</time>
      </trkpt>
      <trkpt lat="48.19573" lon="-3.977">
        <ele>19.36376953125</ele>
        <time>2012-04-20T10:36:27Z</time>
      </trkpt>
      <trkpt lat="48.19504" lon="-3.97813">
        <ele>19.36376953125</ele>
        <time>2012-04-20T10:36:55Z</time>
      </trkpt>
      <trkpt lat="48.19423" lon="-3.97944">
        <ele>18.40234375</ele>
        <time>2012-04-20T10:37:25Z</time>
      </trkpt>
      <trkpt lat="48.19385" lon="-3.98025">
        <ele>18.883056640625</ele>
        <time>2012-04-20T10:37:43Z</time>
      </trkpt>
      <trkpt lat="48.19367" lon="-3.98066">
        <ele>19.36376953125</ele>
        <time>2012-04-20T10:37:58Z</time>
      </trkpt>
      <trkpt lat="48.19336" lon="-3.98138">
        <ele>20.8056640625</ele>
        <time>2012-04-20T10:38:11Z</time>
      </trkpt>
      <trkpt lat="48.19325" lon="-3.98164">
        <ele>22.24755859375</ele>
        <time>2012-04-20T10:38:21Z</time>
      </trkpt>
      <trkpt lat="48.19324" lon="-3.98164">
        <ele>22.728271484375</ele>
        <time>2012-04-20T10:38:38Z</time>
      </trkpt>
      <trkpt lat="48.19324" lon="-3.98164">
        <ele>22.728271484375</ele>
        <time>2012-04-20T10:39:05Z</time>
      </trkpt>
      <trkpt lat="48.19324" lon="-3.98164">
        <ele>23.208984375</ele>
        <time>2012-04-20T10:39:58Z</time>
      </trkpt>
      <trkpt lat="48.19298" lon="-3.98234">
        <ele>23.689575195312</ele>
        <time>2012-04-20T10:40:11Z</time>
      </trkpt>
      <trkpt lat="48.19254" lon="-3.98293">
        <ele>21.766967773438</ele>
        <time>2012-04-20T10:40:29Z</time>
      </trkpt>
      <trkpt lat="48.19237" lon="-3.98342">
        <ele>21.766967773438</ele>
        <time>2012-04-20T10:40:43Z</time>
      </trkpt>
      <trkpt lat="48.1925" lon="-3.98373">
        <ele>21.766967773438</ele>
        <time>2012-04-20T10:40:56Z</time>
      </trkpt>
      <trkpt lat="48.19232" lon="-3.98425">
        <ele>22.728271484375</ele>
        <time>2012-04-20T10:41:11Z</time>
      </trkpt>
      <trkpt lat="48.19212" lon="-3.98491">
        <ele>22.728271484375</ele>
        <time>2012-04-20T10:41:28Z</time>
      </trkpt>
      <trkpt lat="48.19179" lon="-3.98572">
        <ele>23.208984375</ele>
        <time>2012-04-20T10:41:52Z</time>
      </trkpt>
      <trkpt lat="48.19141" lon="-3.98601">
        <ele>23.689575195312</ele>
        <time>2012-04-20T10:42:05Z</time>
      </trkpt>
      <trkpt lat="48.19087" lon="-3.98613">
        <ele>23.208984375</ele>
        <time>2012-04-20T10:42:23Z</time>
      </trkpt>
      <trkpt lat="48.19024" lon="-3.98632">
        <ele>22.728271484375</ele>
        <time>2012-04-20T10:42:45Z</time>
      </trkpt>
      <trkpt lat="48.19022" lon="-3.98632">
        <ele>22.728271484375</ele>
        <time>2012-04-20T10:43:01Z</time>
      </trkpt>
      <trkpt lat="48.19022" lon="-3.98632">
        <ele>22.728271484375</ele>
        <time>2012-04-20T10:43:29Z</time>
      </trkpt>
      <trkpt lat="48.19022" lon="-3.98632">
        <ele>22.728271484375</ele>
        <time>2012-04-20T10:45:28Z</time>
      </trkpt>
      <trkpt lat="48.19022" lon="-3.98632">
        <ele>23.689575195312</ele>
        <time>2012-04-20T10:45:38Z</time>
      </trkpt>
      <trkpt lat="48.19022" lon="-3.98632">
        <ele>24.170288085938</ele>
        <time>2012-04-20T10:45:45Z</time>
      </trkpt>
      <trkpt lat="48.19044" lon="-3.98628">
        <ele>24.651000976562</ele>
        <time>2012-04-20T10:45:59Z</time>
      </trkpt>
      <trkpt lat="48.19044" lon="-3.98628">
        <ele>24.170288085938</ele>
        <time>2012-04-20T10:46:31Z</time>
      </trkpt>
      <trkpt lat="48.1908" lon="-3.98615">
        <ele>24.170288085938</ele>
        <time>2012-04-20T10:46:45Z</time>
      </trkpt>
      <trkpt lat="48.19104" lon="-3.98609">
        <ele>24.170288085938</ele>
        <time>2012-04-20T10:46:53Z</time>
      </trkpt>
      <trkpt lat="48.19113" lon="-3.98593">
        <ele>23.208984375</ele>
        <time>2012-04-20T10:46:57Z</time>
      </trkpt>
      <trkpt lat="48.19111" lon="-3.98564">
        <ele>22.24755859375</ele>
        <time>2012-04-20T10:47:02Z</time>
      </trkpt>
      <trkpt lat="48.19127" lon="-3.98475">
        <ele>18.883056640625</ele>
        <time>2012-04-20T10:47:16Z</time>
      </trkpt>
      <trkpt lat="48.19142" lon="-3.98444">
        <ele>17.921752929688</ele>
        <time>2012-04-20T10:47:27Z</time>
      </trkpt>
      <trkpt lat="48.19147" lon="-3.98438">
        <ele>16.479736328125</ele>
        <time>2012-04-20T10:47:39Z</time>
      </trkpt>
      <trkpt lat="48.19147" lon="-3.98438">
        <ele>16.479736328125</ele>
        <time>2012-04-20T10:47:45Z</time>
      </trkpt>
      <trkpt lat="48.19147" lon="-3.98438">
        <ele>16.479736328125</ele>
        <time>2012-04-20T10:47:47Z</time>
      </trkpt>
      <trkpt lat="48.1915" lon="-3.98445">
        <ele>16.479736328125</ele>
        <time>2012-04-20T10:47:52Z</time>
      </trkpt>
      <trkpt lat="48.19152" lon="-3.98456">
        <ele>16.479736328125</ele>
        <time>2012-04-20T10:47:56Z</time>
      </trkpt>
      <trkpt lat="48.1915" lon="-3.98469">
        <ele>16.479736328125</ele>
        <time>2012-04-20T10:48:01Z</time>
      </trkpt>
      <trkpt lat="48.19151" lon="-3.98474">
        <ele>16.96044921875</ele>
        <time>2012-04-20T10:48:17Z</time>
      </trkpt>
      <trkpt lat="48.19149" lon="-3.9847">
        <ele>16.96044921875</ele>
        <time>2012-04-20T10:48:38Z</time>
      </trkpt>
      <trkpt lat="48.19151" lon="-3.98457">
        <ele>17.921752929688</ele>
        <time>2012-04-20T10:49:04Z</time>
      </trkpt>
      <trkpt lat="48.19151" lon="-3.9846">
        <ele>17.921752929688</ele>
        <time>2012-04-20T10:49:52Z</time>
      </trkpt>
      <trkpt lat="48.19151" lon="-3.98457">
        <ele>18.40234375</ele>
        <time>2012-04-20T10:50:16Z</time>
      </trkpt>
      <trkpt lat="48.19151" lon="-3.9845">
        <ele>18.883056640625</ele>
        <time>2012-04-20T10:50:21Z</time>
      </trkpt>
      <trkpt lat="48.19145" lon="-3.98438">
        <ele>18.40234375</ele>
        <time>2012-04-20T10:50:36Z</time>
      </trkpt>
      <trkpt lat="48.1915" lon="-3.98429">
        <ele>18.40234375</ele>
        <time>2012-04-20T10:50:40Z</time>
      </trkpt>
      <trkpt lat="48.192" lon="-3.98374">
        <ele>16.96044921875</ele>
        <time>2012-04-20T10:50:59Z</time>
      </trkpt>
      <trkpt lat="48.19261" lon="-3.98292">
        <ele>16.96044921875</ele>
        <time>2012-04-20T10:51:22Z</time>
      </trkpt>
      <trkpt lat="48.19317" lon="-3.98197">
        <ele>16.96044921875</ele>
        <time>2012-04-20T10:51:45Z</time>
      </trkpt>
      <trkpt lat="48.19321" lon="-3.98191">
        <ele>16.96044921875</ele>
        <time>2012-04-20T10:51:48Z</time>
      </trkpt>
      <trkpt lat="48.19318" lon="-3.98186">
        <ele>17.921752929688</ele>
        <time>2012-04-20T10:52:00Z</time>
      </trkpt>
      <trkpt lat="48.19317" lon="-3.98186">
        <ele>17.441162109375</ele>
        <time>2012-04-20T10:52:23Z</time>
      </trkpt>
    </trkseg>
  </trk>
</gpx>